Hlavní strana
METAR-TAF:

METAR-TAF

Letiště :

Crestview, Florida, Spojené státy americké

zeměpisná šířka: 30-46-20N, zeměpisná délka: 086-31-12W, výška: 65 m

Aktuální stav počasí

Zpráva byla vytvořena před 58 minutami, v 00:53 UTC
Jihovýchodní vítr 4 kt
Teplota 18°C
Vlhkost vzduchu 94%
Tlak 1021 hPa
Viditelnost: 16.1 km
Polojasno ve výšce 600 ft
Oblačno až skoro zataženo ve výšce 7500 ft

METAR: KCEW 190053Z AUTO 14004KT 10SM SCT006 BKN075 18/17 A3016 RMK AO2 RAE2356 SLP211 P0000 T01830172

Čas: 19:51 (01:51 UTC)


TAF: chybějící

Stav a předpovědi počasí z více než 4 000 letišť (zprávy METAR a TAF).

Červené a žluté tečky na mapě představují dostupné meteorologické stanice.

Když kurzor umístíte na tečku, zobrazí se název stanice.

Pak kliknutím zobrazíte stav a předpověď počasí.

Chcete-li změnit mapu, kliknutím na zelené tlačítko se znaménkem +mapu přiblížíte, kliknutím na zelené tlačítko se znaménkem – mapu oddálíte a kliknutím na zelené šipky přejdete na sousední mapy.


METAR-TAF: